Time;durP1;ratioP1;P1;durP2;ratioP2;P2;SDS_P1;SDS_P2;PMS_P1;PMS_P2;Temp;Humidity;BMP_temperature;BMP_pressure;BME280_temperature;BME280_humidity;BME280_pressure;Samples;Min_cycle;Max_cycle;Signal;HPM_P1;HPM_P2
2021/08/06 00:00:10;;;;;;;12.05;10.95;;;19.50;99.90;;;;;;5009648;28;20191;-82
2021/08/06 00:02:38;;;;;;;10.57;9.55;;;19.50;99.90;;;;;;5010898;28;20207;-83
2021/08/06 00:05:06;;;;;;;12.95;10.98;;;19.50;99.90;;;;;;5010997;28;20199;-83
2021/08/06 00:07:32;;;;;;;11.82;10.65;;;19.50;99.90;;;;;;5010288;28;20234;-83
2021/08/06 00:09:59;;;;;;;12.38;11.15;;;19.50;99.90;;;;;;5009569;28;20207;-80
2021/08/06 00:12:26;;;;;;;13.90;11.55;;;19.40;99.90;;;;;;5010807;28;20607;-86
2021/08/06 00:14:53;;;;;;;10.40;9.43;;;19.40;99.90;;;;;;5010538;28;20563;-83
2021/08/06 00:17:20;;;;;;;11.13;10.02;;;19.40;99.90;;;;;;5010138;28;20614;-82
2021/08/06 00:19:48;;;;;;;10.63;9.55;;;19.40;99.90;;;;;;5010345;28;20334;-83
2021/08/06 00:22:15;;;;;;;10.80;9.80;;;19.40;99.90;;;;;;5008389;28;20195;-86
2021/08/06 00:24:42;;;;;;;9.80;8.80;;;19.40;99.90;;;;;;5009746;28;20207;-85
2021/08/06 00:27:08;;;;;;;12.70;9.25;;;19.40;99.90;;;;;;5011749;28;20635;-79
2021/08/06 00:29:35;;;;;;;10.93;8.73;;;19.40;99.90;;;;;;5010629;28;20199;-84
2021/08/06 00:32:02;;;;;;;10.23;9.15;;;19.30;99.90;;;;;;5010619;28;20203;-87
2021/08/06 00:34:29;;;;;;;10.27;9.05;;;19.30;99.90;;;;;;5012197;28;20227;-83
2021/08/06 00:36:57;;;;;;;9.45;8.45;;;19.30;99.90;;;;;;5025027;28;20205;-86
2021/08/06 00:39:24;;;;;;;11.38;9.18;;;19.30;99.90;;;;;;5030229;28;20199;-79
2021/08/06 00:41:51;;;;;;;8.68;7.78;;;19.20;99.90;;;;;;5031024;28;20194;-87
2021/08/06 00:44:17;;;;;;;10.77;8.63;;;19.20;99.90;;;;;;5029657;28;20227;-86
2021/08/06 00:46:44;;;;;;;9.65;8.45;;;19.20;99.90;;;;;;5014747;28;20499;-84
2021/08/06 00:49:11;;;;;;;8.70;7.55;;;19.20;99.90;;;;;;5008939;28;20499;-80
2021/08/06 00:51:38;;;;;;;10.02;8.02;;;19.30;99.90;;;;;;5009547;28;20198;-85
2021/08/06 00:54:07;;;;;;;7.82;7.03;;;19.20;99.90;;;;;;5009316;28;20219;-79
2021/08/06 00:56:33;;;;;;;7.32;6.63;;;19.30;99.90;;;;;;5011755;28;20208;-80
2021/08/06 00:59:00;;;;;;;8.73;7.90;;;19.20;99.90;;;;;;5019603;28;20211;-79
2021/08/06 01:01:30;;;;;;;8.02;7.22;;;19.20;99.90;;;;;;5009729;28;20595;-82
2021/08/06 01:04:06;;;;;;;7.97;7.20;;;19.20;99.90;;;;;;5009956;28;20211;-82
2021/08/06 01:06:42;;;;;;;7.93;7.13;;;19.20;99.90;;;;;;5012674;28;20213;-81
2021/08/06 01:09:19;;;;;;;7.97;7.18;;;19.20;99.90;;;;;;5028857;28;20904;-80
2021/08/06 01:11:51;;;;;;;8.40;7.40;;;19.30;99.90;;;;;;5027854;28;20599;-89
2021/08/06 01:14:24;;;;;;;9.98;6.43;;;19.20;99.90;;;;;;5029418;28;20214;-86
2021/08/06 01:16:52;;;;;;;8.10;6.47;;;19.20;99.90;;;;;;5030660;28;20203;-81
2021/08/06 01:19:26;;;;;;;6.47;5.88;;;19.10;99.90;;;;;;5015126;28;20199;-80
2021/08/06 01:22:03;;;;;;;6.93;6.22;;;19.10;99.90;;;;;;5019221;28;20206;-80
2021/08/06 01:24:34;;;;;;;6.18;5.60;;;19.20;99.90;;;;;;5031249;28;20214;-79
2021/08/06 01:27:02;;;;;;;7.40;5.47;;;19.20;99.90;;;;;;5021887;28;20273;-81
2021/08/06 01:29:29;;;;;;;6.60;5.75;;;19.10;99.90;;;;;;5010124;28;20203;-82
2021/08/06 01:31:56;;;;;;;10.45;6.32;;;19.10;99.90;;;;;;5009624;28;20207;-87
2021/08/06 01:34:22;;;;;;;7.18;6.47;;;19.10;99.90;;;;;;5011477;28;20235;-89
2021/08/06 01:36:49;;;;;;;9.00;7.22;;;19.00;99.90;;;;;;5011359;28;20201;-87
2021/08/06 01:39:17;;;;;;;8.07;7.13;;;18.90;99.90;;;;;;5020807;28;20209;-85
2021/08/06 01:41:54;;;;;;;11.38;7.95;;;18.70;99.90;;;;;;5030615;28;20198;-89
2021/08/06 01:44:28;;;;;;;8.65;7.75;;;18.60;99.90;;;;;;5011288;28;20227;-92
2021/08/06 01:46:59;;;;;;;9.68;7.35;;;18.50;99.90;;;;;;5010310;28;20195;-87
2021/08/06 01:49:30;;;;;;;9.30;6.40;;;18.40;99.90;;;;;;5011128;28;20222;-84
2021/08/06 01:52:03;;;;;;;8.43;6.75;;;18.30;99.90;;;;;;5021201;28;20191;-91
2021/08/06 01:54:31;;;;;;;7.88;6.57;;;18.10;99.90;;;;;;5018785;28;20490;-88
2021/08/06 01:56:59;;;;;;;9.93;6.90;;;18.10;99.90;;;;;;5011534;28;20762;-90
2021/08/06 01:59:29;;;;;;;7.72;6.78;;;18.00;99.90;;;;;;5025347;28;20217;-86
2021/08/06 02:01:57;;;;;;;7.32;6.53;;;17.90;99.90;;;;;;5031933;28;20203;-87
2021/08/06 02:04:24;;;;;;;7.97;7.18;;;17.90;99.90;;;;;;5031533;28;20210;-85
2021/08/06 02:06:52;;;;;;;8.13;7.30;;;17.90;99.90;;;;;;5032104;28;20202;-92
2021/08/06 02:09:19;;;;;;;8.65;6.72;;;17.90;99.90;;;;;;5031273;28;20783;-96
2021/08/06 02:11:47;;;;;;;8.40;7.10;;;17.80;99.90;;;;;;5031318;28;20272;-88
2021/08/06 02:14:17;;;;;;;8.95;7.15;;;17.80;99.90;;;;;;5029967;28;20206;-82
2021/08/06 02:16:47;;;;;;;9.40;7.50;;;17.70;99.90;;;;;;5029401;28;20584;-91
2021/08/06 02:19:18;;;;;;;7.60;6.88;;;17.70;99.90;;;;;;5026845;28;20607;-87
2021/08/06 02:21:51;;;;;;;8.23;7.28;;;17.70;99.90;;;;;;5030265;28;20629;-82
2021/08/06 02:24:18;;;;;;;8.93;7.60;;;17.60;99.90;;;;;;5032657;28;20566;-87
2021/08/06 02:26:47;;;;;;;8.02;7.20;;;17.60;99.90;;;;;;5031074;28;20583;-89
2021/08/06 02:29:15;;;;;;;8.90;7.82;;;17.50;99.90;;;;;;5029554;28;20240;-86
2021/08/06 02:31:45;;;;;;;8.38;7.53;;;17.50;99.90;;;;;;5013309;28;20211;-81
2021/08/06 02:34:15;;;;;;;7.68;6.97;;;17.50;99.90;;;;;;5009960;28;20294;-89
2021/08/06 02:36:42;;;;;;;8.07;7.25;;;17.50;99.90;;;;;;5010480;28;20199;-90
2021/08/06 02:39:15;;;;;;;9.15;8.15;;;17.40;99.90;;;;;;5010288;28;20211;-88
2021/08/06 02:41:42;;;;;;;9.07;7.43;;;17.40;99.90;;;;;;5010950;28;20210;-86
2021/08/06 02:44:10;;;;;;;9.55;7.65;;;17.40;99.90;;;;;;5008840;28;20251;-93
2021/08/06 02:46:36;;;;;;;8.95;8.05;;;17.40;99.90;;;;;;5010063;28;20611;-85
2021/08/06 02:49:05;;;;;;;9.18;7.63;;;17.40;99.90;;;;;;5019535;28;20627;-83
2021/08/06 02:51:32;;;;;;;8.13;7.32;;;17.40;99.90;;;;;;5029537;28;20211;-84
2021/08/06 02:54:00;;;;;;;6.35;5.75;;;17.40;99.90;;;;;;5018947;28;20302;-91
2021/08/06 02:56:27;;;;;;;8.43;6.75;;;17.40;99.90;;;;;;5011969;28;20203;-90
2021/08/06 02:58:56;;;;;;;7.82;6.00;;;17.40;99.90;;;;;;5028014;28;20202;-88
2021/08/06 03:01:24;;;;;;;7.05;5.65;;;17.40;99.90;;;;;;5029495;28;20850;-90
2021/08/06 03:03:51;;;;;;;11.70;10.50;;;17.40;99.90;;;;;;5027979;28;20590;-88
2021/08/06 03:06:20;;;;;;;8.40;7.50;;;17.40;99.90;;;;;;5017913;28;20214;-81
2021/08/06 03:08:46;;;;;;;6.90;6.10;;;17.40;99.90;;;;;;5006788;28;20233;-83
2021/08/06 03:11:13;;;;;;;6.95;6.25;;;17.40;99.90;;;;;;5006459;28;20210;-84
2021/08/06 03:13:40;;;;;;;7.45;6.15;;;17.40;99.90;;;;;;5006263;28;20214;-82
2021/08/06 03:16:07;;;;;;;8.63;6.20;;;17.40;99.90;;;;;;5006898;28;20214;-81
2021/08/06 03:18:34;;;;;;;6.03;5.43;;;17.40;99.90;;;;;;5005893;28;20211;-82
2021/08/06 03:21:01;;;;;;;7.88;6.22;;;17.40;99.90;;;;;;5011452;28;20825;-92
2021/08/06 03:23:29;;;;;;;7.40;5.95;;;17.40;99.90;;;;;;5010593;28;20317;-89
2021/08/06 03:25:56;;;;;;;8.98;6.53;;;17.40;99.90;;;;;;5010516;28;20200;-81
2021/08/06 03:28:23;;;;;;;7.00;5.97;;;17.40;99.90;;;;;;5010320;28;20234;-90
2021/08/06 03:30:49;;;;;;;7.63;6.30;;;17.40;99.90;;;;;;5010749;28;20199;-87
2021/08/06 03:33:16;;;;;;;6.93;6.18;;;17.40;99.90;;;;;;5009915;28;20227;-87
2021/08/06 03:35:44;;;;;;;7.60;5.85;;;17.40;99.90;;;;;;5008954;28;20195;-82
2021/08/06 03:38:15;;;;;;;7.05;6.35;;;17.40;99.90;;;;;;5009297;28;20200;-90
2021/08/06 03:40:43;;;;;;;6.63;5.93;;;17.40;99.90;;;;;;5008081;28;20208;-89
2021/08/06 03:43:11;;;;;;;7.20;5.50;;;17.40;99.90;;;;;;5008267;28;20199;-88
2021/08/06 03:45:38;;;;;;;5.97;5.40;;;17.40;99.90;;;;;;5010265;28;20251;-90
2021/08/06 03:48:06;;;;;;;6.25;5.55;;;17.40;99.90;;;;;;5010011;28;20246;-81
2021/08/06 03:50:33;;;;;;;6.63;5.28;;;17.40;99.90;;;;;;5009001;28;20191;-87
2021/08/06 03:53:00;;;;;;;5.65;5.03;;;17.40;99.90;;;;;;5009933;28;20214;-81
2021/08/06 03:55:27;;;;;;;9.05;5.38;;;17.40;99.90;;;;;;5008668;28;20542;-81
2021/08/06 03:57:57;;;;;;;6.00;5.40;;;17.40;99.90;;;;;;5011780;28;20603;-88
2021/08/06 04:00:26;;;;;;;7.85;5.38;;;17.50;99.90;;;;;;5011479;28;20211;-86
2021/08/06 04:02:53;;;;;;;6.18;4.68;;;17.50;99.90;;;;;;5012190;28;20203;-87
2021/08/06 04:05:20;;;;;;;5.90;5.30;;;17.50;99.90;;;;;;5026991;28;20217;-87
2021/08/06 04:07:49;;;;;;;6.55;4.88;;;17.50;99.90;;;;;;5032913;28;20209;-84
2021/08/06 04:10:18;;;;;;;5.55;4.82;;;17.50;99.90;;;;;;5032610;28;20228;-87
2021/08/06 04:12:46;;;;;;;4.82;4.40;;;17.50;99.90;;;;;;5032664;28;20207;-89
2021/08/06 04:15:15;;;;;;;4.80;4.20;;;17.50;99.90;;;;;;5032330;28;20210;-88
2021/08/06 04:17:43;;;;;;;6.25;5.65;;;17.50;99.90;;;;;;5032545;28;20214;-91
2021/08/06 04:20:11;;;;;;;7.95;4.75;;;17.50;99.90;;;;;;5030241;28;20214;-81
2021/08/06 04:22:38;;;;;;;7.03;5.07;;;17.50;99.90;;;;;;5028854;28;20209;-87
2021/08/06 04:25:06;;;;;;;5.43;4.93;;;17.50;99.90;;;;;;5031186;28;20256;-82
2021/08/06 04:27:34;;;;;;;6.15;5.40;;;17.50;99.90;;;;;;5030298;28;20206;-81
2021/08/06 04:30:00;;;;;;;5.50;5.00;;;17.50;99.90;;;;;;5019177;28;20266;-84
2021/08/06 04:32:29;;;;;;;5.70;5.10;;;17.50;99.90;;;;;;5008280;28;20210;-82
2021/08/06 04:34:55;;;;;;;6.28;5.07;;;17.50;99.90;;;;;;5010182;28;20221;-87
2021/08/06 04:37:22;;;;;;;5.18;4.70;;;17.50;99.90;;;;;;5011055;28;20200;-88
2021/08/06 04:39:49;;;;;;;6.93;5.20;;;17.50;99.90;;;;;;5013012;28;20204;-86
2021/08/06 04:42:17;;;;;;;5.93;5.32;;;17.50;99.90;;;;;;5012330;28;20273;-88
2021/08/06 04:44:43;;;;;;;6.30;5.43;;;17.50;99.90;;;;;;5011576;28;20543;-90
2021/08/06 04:47:11;;;;;;;6.75;5.00;;;17.50;99.90;;;;;;5010844;28;20214;-91
2021/08/06 04:49:39;;;;;;;5.50;4.95;;;17.50;99.90;;;;;;5008085;28;20234;-90
2021/08/06 04:52:07;;;;;;;6.97;5.93;;;17.50;99.90;;;;;;5009945;28;20200;-91
2021/08/06 04:54:34;;;;;;;5.97;5.38;;;17.50;99.90;;;;;;5011747;28;20208;-91
2021/08/06 04:57:01;;;;;;;7.28;5.70;;;17.50;99.90;;;;;;5011188;28;20203;-90
2021/08/06 04:59:28;;;;;;;7.10;5.63;;;17.50;99.90;;;;;;5011480;28;20305;-89
2021/08/06 05:01:54;;;;;;;7.38;5.68;;;17.60;99.90;;;;;;5011928;28;20622;-85
2021/08/06 05:04:21;;;;;;;6.20;5.60;;;17.60;99.90;;;;;;5011190;28;20294;-84
2021/08/06 05:06:49;;;;;;;8.75;5.80;;;17.50;99.90;;;;;;5011103;28;20207;-85
2021/08/06 05:09:16;;;;;;;6.18;5.55;;;17.60;99.90;;;;;;5011315;28;20242;-90
2021/08/06 05:11:43;;;;;;;8.18;6.38;;;17.60;99.90;;;;;;5021663;28;20211;-86
2021/08/06 05:14:10;;;;;;;9.48;7.28;;;17.60;99.90;;;;;;5028479;28;20199;-86
2021/08/06 05:16:37;;;;;;;9.15;7.07;;;17.70;99.90;;;;;;5012627;28;20192;-87
2021/08/06 05:19:04;;;;;;;8.20;7.35;;;17.70;99.90;;;;;;5011655;28;20290;-88
2021/08/06 05:21:30;;;;;;;8.40;7.50;;;17.70;99.90;;;;;;5011042;28;20207;-92
2021/08/06 05:24:00;;;;;;;8.20;7.50;;;17.70;99.90;;;;;;5009581;28;20614;-90
2021/08/06 05:26:27;;;;;;;8.20;7.40;;;17.70;99.90;;;;;;5008345;28;20211;-90
2021/08/06 05:28:54;;;;;;;9.50;7.82;;;17.70;99.90;;;;;;5008385;28;20321;-89
2021/08/06 05:31:22;;;;;;;7.72;7.03;;;17.60;99.90;;;;;;5011749;28;20219;-93
2021/08/06 05:33:49;;;;;;;8.43;7.65;;;17.60;99.90;;;;;;5012301;28;20227;-93
2021/08/06 05:36:16;;;;;;;8.52;7.47;;;17.60;99.90;;;;;;5012243;28;20215;-91
2021/08/06 05:38:42;;;;;;;9.40;8.43;;;17.60;99.90;;;;;;5012986;28;20202;-94
2021/08/06 05:41:11;;;;;;;8.20;7.53;;;17.70;99.90;;;;;;5013017;28;20901;-90
2021/08/06 05:43:37;;;;;;;7.68;7.03;;;17.60;99.90;;;;;;5013036;28;20199;-93
2021/08/06 05:46:04;;;;;;;7.82;7.10;;;17.60;99.90;;;;;;5011258;28;20247;-92
2021/08/06 05:48:31;;;;;;;9.05;8.15;;;17.70;99.90;;;;;;5012873;28;20204;-93
2021/08/06 05:50:58;;;;;;;9.13;8.32;;;17.70;99.90;;;;;;5013810;28;20203;-93
2021/08/06 05:53:25;;;;;;;7.43;6.80;;;17.80;99.90;;;;;;5013094;28;20203;-92
2021/08/06 05:55:52;;;;;;;8.60;7.80;;;17.80;99.90;;;;;;5014749;28;20202;-93
2021/08/06 05:58:20;;;;;;;8.40;7.60;;;17.80;99.90;;;;;;5024822;28;20213;-93
2021/08/06 06:00:47;;;;;;;8.73;7.60;;;17.90;99.90;;;;;;5013240;28;20591;-94
2021/08/06 06:03:17;;;;;;;8.45;7.65;;;17.90;99.90;;;;;;5014638;28;20711;-87
2021/08/06 06:05:43;;;;;;;9.60;7.20;;;18.00;99.90;;;;;;5024992;28;20249;-92
2021/08/06 06:08:10;;;;;;;8.45;7.25;;;18.10;99.90;;;;;;5031468;28;20198;-90
2021/08/06 06:10:37;;;;;;;8.98;8.10;;;18.30;99.90;;;;;;5031396;28;20641;-92
2021/08/06 06:13:05;;;;;;;10.02;7.72;;;18.40;99.90;;;;;;5032927;28;20202;-88
2021/08/06 06:15:33;;;;;;;8.02;7.05;;;18.50;99.90;;;;;;5034224;28;20348;-92
2021/08/06 06:18:00;;;;;;;7.18;6.57;;;18.50;99.90;;;;;;5032821;28;20199;-93
2021/08/06 06:20:27;;;;;;;7.15;6.55;;;18.40;99.90;;;;;;5033321;28;20199;-92
2021/08/06 06:22:54;;;;;;;7.60;6.90;;;18.40;99.90;;;;;;5029207;28;20214;-92
2021/08/06 06:25:25;;;;;;;8.07;7.30;;;18.40;99.90;;;;;;5018374;28;20199;-88
2021/08/06 06:27:55;;;;;;;9.20;6.43;;;18.40;99.90;;;;;;5016369;28;20191;-91
2021/08/06 06:30:24;;;;;;;7.28;6.57;;;18.50;99.90;;;;;;5016053;28;20229;-93
2021/08/06 06:32:52;;;;;;;7.05;6.35;;;18.60;99.90;;;;;;5013694;28;20265;-94
2021/08/06 06:35:20;;;;;;;7.63;6.57;;;18.90;99.90;;;;;;5018232;28;20203;-96
2021/08/06 06:37:47;;;;;;;6.25;5.75;;;19.20;99.90;;;;;;5044560;28;20278;-93
2021/08/06 06:40:17;;;;;;;6.60;5.65;;;19.60;99.90;;;;;;5024697;28;20616;-80
2021/08/06 06:42:44;;;;;;;5.97;4.72;;;19.70;99.90;;;;;;5011074;28;20269;-91
2021/08/06 06:45:12;;;;;;;7.72;5.18;;;19.80;99.90;;;;;;5011652;28;20247;-92
2021/08/06 06:47:41;;;;;;;6.45;4.38;;;20.00;99.90;;;;;;5012288;28;20619;-90
2021/08/06 06:50:13;;;;;;;4.63;4.20;;;20.20;99.90;;;;;;5012339;28;20833;-82
2021/08/06 06:52:41;;;;;;;6.80;4.40;;;20.30;99.90;;;;;;5025963;28;20908;-92
2021/08/06 06:55:09;;;;;;;5.50;4.32;;;20.60;99.90;;;;;;5029499;28;20218;-89
2021/08/06 07:00:56;;;;;;;5.40;3.30;;;21.10;99.90;;;;;;5014895;28;20214;-94
2021/08/06 07:03:23;;;;;;;4.93;3.47;;;21.20;99.90;;;;;;5018747;28;20211;-94
2021/08/06 07:05:51;;;;;;;7.82;4.15;;;21.10;99.90;;;;;;5011341;28;20203;-95
2021/08/06 07:08:18;;;;;;;4.88;3.75;;;21.00;99.90;;;;;;5009781;28;20215;-85
2021/08/06 07:10:46;;;;;;;4.10;3.63;;;21.00;99.90;;;;;;5010648;28;20230;-92
2021/08/06 07:13:13;;;;;;;4.78;4.38;;;20.90;99.90;;;;;;5008998;28;20248;-95
2021/08/06 07:19:17;;;;;;;5.93;4.00;;;20.80;99.90;;;;;;4975007;28;20199;-93
2021/08/06 07:21:48;;;;;;;6.07;4.50;;;20.70;99.90;;;;;;5025649;28;20198;-85
2021/08/06 07:24:15;;;;;;;5.68;4.70;;;20.60;99.90;;;;;;5009677;28;20203;-90
2021/08/06 07:26:42;;;;;;;5.22;4.80;;;20.60;99.90;;;;;;5019538;28;20205;-90
2021/08/06 07:29:09;;;;;;;5.25;4.75;;;20.90;99.90;;;;;;5028277;28;20230;-90
2021/08/06 07:31:36;;;;;;;5.55;4.00;;;21.00;99.90;;;;;;5029691;28;20206;-86
2021/08/06 07:34:03;;;;;;;7.60;4.38;;;21.20;99.90;;;;;;5022468;28;20301;-88
2021/08/06 07:36:29;;;;;;;6.45;5.32;;;21.30;99.90;;;;;;5011344;28;20203;-87
2021/08/06 07:38:58;;;;;;;7.03;4.38;;;21.30;99.90;;;;;;5020768;28;20213;-93
2021/08/06 07:41:24;;;;;;;7.50;4.82;;;21.30;99.90;;;;;;5032507;28;20205;-82
2021/08/06 07:43:51;;;;;;;8.50;5.20;;;21.30;99.90;;;;;;5033937;28;20203;-92
2021/08/06 07:46:19;;;;;;;7.97;4.93;;;21.10;99.90;;;;;;5036399;28;20214;-91
2021/08/06 07:48:45;;;;;;;5.72;4.88;;;21.00;99.90;;;;;;5035502;28;20198;-92
2021/08/06 07:51:12;;;;;;;6.78;4.78;;;20.90;99.90;;;;;;5035812;28;20246;-93
2021/08/06 07:53:42;;;;;;;4.93;4.53;;;20.80;99.90;;;;;;5035123;28;20502;-95
2021/08/06 07:56:20;;;;;;;7.13;4.57;;;20.80;99.90;;;;;;5033063;28;20199;-94
2021/08/06 07:58:48;;;;;;;6.03;4.50;;;20.70;99.90;;;;;;5019845;28;20201;-95
2021/08/06 08:01:30;;;;;;;5.45;4.90;;;20.60;99.90;;;;;;5025486;28;20212;-85
2021/08/06 08:04:11;;;;;;;6.10;4.80;;;20.50;99.90;;;;;;5041656;23;20874;-85
2021/08/06 08:06:50;;;;;;;8.07;5.50;;;20.50;99.90;;;;;;5062158;28;20194;-95
2021/08/06 08:09:17;;;;;;;6.75;4.57;;;20.40;99.90;;;;;;5065549;28;20222;-91
2021/08/06 08:11:48;;;;;;;7.15;4.82;;;20.30;99.90;;;;;;5055551;23;20190;-94
2021/08/06 08:14:15;;;;;;;5.95;4.75;;;20.20;99.90;;;;;;5058131;28;20524;-94
2021/08/06 08:16:42;;;;;;;7.35;4.93;;;20.30;99.90;;;;;;5062659;28;20750;-89
2021/08/06 08:19:09;;;;;;;6.63;4.30;;;20.30;99.90;;;;;;5057169;28;20194;-93
2021/08/06 08:21:42;;;;;;;10.10;4.88;;;20.60;99.90;;;;;;5052820;23;20229;-93
2021/08/06 08:24:18;;;;;;;5.60;4.50;;;20.80;99.90;;;;;;5057492;28;20194;-95
2021/08/06 08:26:52;;;;;;;9.05;4.57;;;20.80;99.90;;;;;;5053485;23;20296;-92
2021/08/06 08:29:19;;;;;;;9.25;4.05;;;20.90;99.90;;;;;;5034596;28;20221;-93
2021/08/06 08:31:47;;;;;;;5.82;3.88;;;20.90;99.90;;;;;;5046293;23;20202;-89
2021/08/06 08:34:22;;;;;;;4.50;3.95;;;21.00;99.90;;;;;;5063901;22;20241;-86
2021/08/06 08:36:52;;;;;;;7.60;4.47;;;21.10;99.90;;;;;;5062632;28;20533;-81
2021/08/06 08:39:25;;;;;;;6.65;3.65;;;21.20;99.90;;;;;;5053198;28;20587;-85
2021/08/06 08:41:54;;;;;;;7.43;3.85;;;21.30;99.90;;;;;;5044108;28;20213;-90
2021/08/06 08:44:21;;;;;;;7.30;3.47;;;21.50;99.90;;;;;;5031367;28;20214;-91
2021/08/06 08:46:49;;;;;;;5.22;3.47;;;21.60;99.90;;;;;;5031252;28;20207;-86
2021/08/06 08:49:16;;;;;;;4.40;3.38;;;21.50;99.90;;;;;;5047036;28;20209;-83
2021/08/06 08:51:50;;;;;;;4.85;3.35;;;21.20;99.90;;;;;;5049716;28;20707;-86
2021/08/06 08:54:17;;;;;;;7.93;3.60;;;21.00;99.90;;;;;;5034497;28;20422;-92
2021/08/06 08:56:48;;;;;;;6.18;3.25;;;20.90;99.90;;;;;;5039266;28;20194;-90
2021/08/06 08:59:18;;;;;;;3.83;3.28;;;21.00;99.90;;;;;;5049348;28;20221;-81
2021/08/06 09:01:45;;;;;;;4.47;3.38;;;21.10;99.90;;;;;;5054558;28;20233;-88
2021/08/06 09:04:23;;;;;;;5.07;3.08;;;21.20;99.90;;;;;;5055692;28;20217;-95
2021/08/06 09:06:52;;;;;;;6.93;3.25;;;21.10;99.90;;;;;;5052712;28;20213;-87
2021/08/06 09:09:21;;;;;;;8.73;4.13;;;20.90;99.90;;;;;;5046395;28;20233;-90
2021/08/06 09:11:49;;;;;;;5.43;3.70;;;20.90;99.90;;;;;;5030197;28;20664;-92
2021/08/06 09:14:24;;;;;;;6.85;3.97;;;21.10;99.90;;;;;;5048711;23;20245;-82
2021/08/06 09:17:04;;;;;;;5.00;3.50;;;21.20;99.90;;;;;;5029452;28;20214;-85
2021/08/06 09:19:33;;;;;;;7.00;3.88;;;21.20;99.90;;;;;;5011505;28;20199;-83
2021/08/06 09:22:15;;;;;;;7.80;4.13;;;21.20;99.90;;;;;;5026671;28;20210;-81
2021/08/06 09:24:58;;;;;;;5.28;4.10;;;21.20;99.90;;;;;;5040152;28;20635;-88
2021/08/06 09:27:32;;;;;;;6.10;3.88;;;21.20;99.90;;;;;;5037298;28;20193;-85
2021/08/06 09:30:01;;;;;;;4.68;3.38;;;21.20;99.90;;;;;;5049634;28;20705;-83
2021/08/06 09:32:28;;;;;;;5.20;3.78;;;21.10;99.90;;;;;;5036100;28;20245;-81
2021/08/06 09:34:56;;;;;;;7.63;3.28;;;20.90;99.90;;;;;;5030533;28;20218;-88
2021/08/06 09:37:23;;;;;;;7.65;3.33;;;20.90;99.90;;;;;;5030413;28;20667;-80
2021/08/06 09:39:52;;;;;;;5.07;3.70;;;20.80;99.90;;;;;;5029953;28;20248;-90
2021/08/06 09:42:21;;;;;;;8.23;3.65;;;20.80;99.90;;;;;;5029913;28;20203;-89
2021/08/06 09:45:03;;;;;;;7.28;3.60;;;20.80;99.90;;;;;;5031146;28;20206;-92
2021/08/06 09:47:32;;;;;;;6.60;3.13;;;20.80;99.90;;;;;;5043503;28;20210;-83
2021/08/06 09:50:03;;;;;;;5.70;3.60;;;20.90;99.90;;;;;;5051828;28;20532;-90
2021/08/06 09:52:36;;;;;;;4.95;3.58;;;21.10;99.90;;;;;;5036384;28;20194;-86
2021/08/06 09:55:05;;;;;;;4.93;3.33;;;21.30;99.90;;;;;;5031268;28;20199;-84
2021/08/06 09:57:33;;;;;;;4.47;3.03;;;21.50;99.90;;;;;;5042614;28;20206;-94
2021/08/06 10:00:14;;;;;;;8.20;3.20;;;21.50;99.90;;;;;;5055255;28;20198;-88
2021/08/06 10:02:51;;;;;;;5.68;2.67;;;21.60;99.90;;;;;;5054290;28;20216;-88
2021/08/06 10:05:20;;;;;;;7.75;2.38;;;21.70;99.90;;;;;;5063983;23;20232;-90
2021/08/06 10:07:49;;;;;;;2.75;1.92;;;21.80;99.90;;;;;;5071480;28;20209;-87
2021/08/06 10:10:20;;;;;;;4.25;1.60;;;21.90;99.90;;;;;;5058907;28;20633;-84
2021/08/06 10:12:48;;;;;;;4.00;1.73;;;21.90;99.90;;;;;;5054521;28;20219;-83
2021/08/06 10:15:18;;;;;;;3.03;1.85;;;21.80;99.90;;;;;;5052297;28;20202;-88
2021/08/06 10:17:46;;;;;;;3.70;1.10;;;21.70;99.90;;;;;;5050208;28;20201;-88
2021/08/06 10:20:14;;;;;;;3.90;1.25;;;21.60;99.90;;;;;;5055627;28;20877;-87
2021/08/06 10:22:41;;;;;;;3.33;1.23;;;21.40;99.90;;;;;;5068417;28;20597;-87
2021/08/06 10:25:10;;;;;;;2.35;1.45;;;21.30;99.90;;;;;;5067887;28;20197;-95
2021/08/06 10:27:41;;;;;;;1.00;0.80;;;21.10;99.90;;;;;;5070179;28;20873;-93
2021/08/06 10:30:09;;;;;;;2.08;0.80;;;21.00;99.90;;;;;;5068669;28;20257;-91
2021/08/06 10:32:40;;;;;;;2.05;1.15;;;21.00;99.90;;;;;;5072434;28;20304;-77
2021/08/06 10:35:12;;;;;;;1.60;1.10;;;21.00;99.90;;;;;;5085601;28;20216;-91
2021/08/06 10:37:50;;;;;;;1.30;0.93;;;21.30;99.90;;;;;;5088540;28;20210;-86
2021/08/06 10:41:06;;;;;;;2.53;1.40;;;21.50;99.90;;;;;;5068498;28;20236;-81
2021/08/06 10:44:02;;;;;;;2.55;1.60;;;21.70;99.90;;;;;;5068981;28;20212;-88
2021/08/06 10:46:50;;;;;;;2.13;1.85;;;22.00;99.90;;;;;;5068998;28;20248;-85
2021/08/06 10:49:19;;;;;;;4.10;2.08;;;22.20;99.90;;;;;;5083167;28;20208;-92
2021/08/06 10:51:45;;;;;;;2.13;1.92;;;22.50;99.90;;;;;;5075009;28;20236;-92
2021/08/06 10:54:36;;;;;;;3.47;1.90;;;22.60;99.90;;;;;;5068840;28;20503;-78
2021/08/06 10:57:29;;;;;;;3.08;2.10;;;22.80;99.90;;;;;;5069925;28;20217;-82
2021/08/06 10:59:56;;;;;;;2.33;2.13;;;22.80;99.90;;;;;;5068559;28;20226;-80
2021/08/06 11:02:55;;;;;;;2.92;2.10;;;22.80;99.90;;;;;;5067648;28;20582;-81
2021/08/06 11:05:35;;;;;;;2.67;1.80;;;22.60;99.90;;;;;;5084516;28;20299;-92
2021/08/06 11:08:04;;;;;;;3.35;2.08;;;22.50;99.90;;;;;;5091654;28;20188;-87
2021/08/06 11:10:51;;;;;;;3.08;1.92;;;22.40;99.90;;;;;;5092834;28;20227;-86
2021/08/06 11:13:51;;;;;;;3.03;1.90;;;22.10;99.90;;;;;;5096402;28;20204;-86
2021/08/06 11:16:18;;;;;;;4.50;1.70;;;22.00;99.90;;;;;;5083173;28;20200;-83
2021/08/06 11:18:47;;;;;;;2.55;1.75;;;21.80;99.90;;;;;;5080518;28;20556;-86
2021/08/06 11:21:18;;;;;;;3.05;1.85;;;21.70;99.90;;;;;;5089405;28;20204;-85
2021/08/06 11:23:54;;;;;;;3.45;1.50;;;21.80;99.90;;;;;;5094383;28;20212;-88
2021/08/06 11:26:20;;;;;;;3.22;1.50;;;22.20;99.90;;;;;;5094392;28;20215;-85
2021/08/06 11:28:47;;;;;;;4.57;1.85;;;22.40;99.90;;;;;;5094134;28;20196;-84
2021/08/06 11:31:16;;;;;;;4.13;1.63;;;22.60;99.90;;;;;;5093155;28;20232;-88
2021/08/06 11:33:42;;;;;;;7.13;2.35;;;22.70;99.90;;;;;;5084434;28;20240;-88
2021/08/06 11:36:17;;;;;;;6.57;1.83;;;22.80;99.90;;;;;;5074100;28;20243;-85
2021/08/06 11:38:44;;;;;;;6.10;2.00;;;22.90;99.90;;;;;;5087645;28;20219;-89
2021/08/06 11:41:11;;;;;;;5.13;1.70;;;23.20;99.90;;;;;;5106464;28;20207;-85
2021/08/06 11:43:38;;;;;;;5.30;1.98;;;23.20;99.90;;;;;;5107097;28;20193;-84
2021/08/06 11:46:10;;;;;;;5.65;1.77;;;23.20;99.90;;;;;;5094668;28;20316;-81
2021/08/06 11:48:51;;;;;;;3.67;1.73;;;23.00;99.90;;;;;;5075472;28;20209;-84
2021/08/06 11:51:20;;;;;;;2.80;1.55;;;22.90;99.90;;;;;;5071701;28;20632;-81
2021/08/06 11:53:47;;;;;;;9.02;2.70;;;22.60;99.90;;;;;;5077535;28;20212;-81
2021/08/06 11:56:15;;;;;;;5.63;1.90;;;22.20;99.90;;;;;;5072994;28;20201;-80
2021/08/06 11:58:43;;;;;;;9.13;2.53;;;21.80;99.90;;;;;;5071447;28;20208;-90
2021/08/06 12:01:18;;;;;;;9.30;3.10;;;21.40;99.90;;;;;;5072590;28;20206;-88
2021/08/06 12:03:46;;;;;;;5.97;2.50;;;21.20;99.90;;;;;;5072677;28;20197;-84
2021/08/06 12:06:15;;;;;;;6.53;1.52;;;21.20;99.90;;;;;;5072235;28;20236;-82
2021/08/06 12:08:47;;;;;;;6.05;1.60;;;21.10;99.90;;;;;;5073152;28;20201;-82
2021/08/06 12:11:16;;;;;;;10.13;2.22;;;21.10;99.90;;;;;;5072392;28;20236;-80
2021/08/06 12:13:50;;;;;;;5.53;1.35;;;21.10;99.90;;;;;;5073514;28;20197;-80
2021/08/06 12:16:20;;;;;;;3.03;1.88;;;21.00;99.90;;;;;;5073252;28;20299;-88
2021/08/06 12:18:49;;;;;;;5.47;1.80;;;20.80;99.90;;;;;;5085135;28;20878;-89
2021/08/06 12:21:18;;;;;;;5.10;1.63;;;20.70;99.90;;;;;;5090929;28;20295;-81
2021/08/06 12:23:49;;;;;;;6.25;1.77;;;20.50;99.90;;;;;;5091660;28;20212;-92
2021/08/06 12:26:21;;;;;;;4.13;1.98;;;20.40;99.90;;;;;;5091130;28;20247;-90
2021/08/06 12:28:50;;;;;;;6.03;1.83;;;20.50;99.90;;;;;;5071729;28;20308;-78
2021/08/06 12:31:23;;;;;;;2.72;1.75;;;20.50;99.90;;;;;;5080418;28;20232;-90
2021/08/06 12:34:04;;;;;;;8.35;2.17;;;20.70;99.90;;;;;;5090237;28;20236;-90
2021/08/06 12:36:32;;;;;;;7.15;1.88;;;20.80;99.90;;;;;;5093887;28;20204;-89
2021/08/06 12:39:09;;;;;;;12.38;2.50;;;21.10;99.90;;;;;;5092372;28;20212;-87
2021/08/06 12:41:36;;;;;;;8.55;2.47;;;21.50;99.90;;;;;;5092013;28;20212;-95
2021/08/06 12:44:16;;;;;;;11.00;2.63;;;21.70;99.90;;;;;;5091894;28;20209;-86
2021/08/06 12:46:54;;;;;;;9.57;2.28;;;21.80;99.90;;;;;;5091786;28;20197;-88
2021/08/06 12:49:25;;;;;;;10.02;2.30;;;21.90;99.90;;;;;;5074863;28;20215;-85
2021/08/06 12:51:58;;;;;;;9.65;2.40;;;22.00;99.90;;;;;;5092417;28;20220;-87
2021/08/06 12:54:42;;;;;;;7.05;2.10;;;21.90;99.90;;;;;;5074629;28;20300;-90
2021/08/06 12:57:10;;;;;;;6.95;2.30;;;21.90;99.90;;;;;;5090185;28;20200;-84
2021/08/06 12:59:39;;;;;;;9.48;2.80;;;21.90;99.90;;;;;;5076921;28;20220;-85
2021/08/06 13:02:21;;;;;;;9.90;2.90;;;22.00;99.90;;;;;;5069847;28;20578;-89
2021/08/06 13:04:50;;;;;;;9.50;3.28;;;22.10;99.90;;;;;;5068480;28;20213;-87